createdAt,value
2022-08-04T00:02:09.877Z,52.72
2022-08-04T00:05:06.856Z,52.87
2022-08-04T00:08:13.187Z,53.12
2022-08-04T00:11:22.005Z,53.28
2022-08-04T00:14:32.619Z,53.58
2022-08-04T00:17:21.579Z,53.38
2022-08-04T00:20:26.715Z,53.43
2022-08-04T00:24:11.489Z,53.47
2022-08-04T00:27:22.569Z,53.75
2022-08-04T00:30:58.196Z,53.53
2022-08-04T00:34:31.843Z,53.65
2022-08-04T00:37:59.978Z,53.50
2022-08-04T00:41:03.390Z,53.64
2022-08-04T00:44:16.041Z,53.70
2022-08-04T00:47:15.236Z,53.66
2022-08-04T00:50:30.451Z,53.93
2022-08-04T00:54:00.104Z,54.02
2022-08-04T00:57:33.826Z,55.00
2022-08-04T01:00:49.498Z,55.67
2022-08-04T01:04:19.475Z,55.45
2022-08-04T01:07:30.652Z,57.47
2022-08-04T01:10:39.064Z,58.07
2022-08-04T01:14:06.898Z,56.99
2022-08-04T01:17:21.708Z,57.18
2022-08-04T01:21:09.803Z,56.88
2022-08-04T01:24:38.653Z,57.35
2022-08-04T01:28:01.580Z,58.13
2022-08-04T01:31:42.320Z,58.19
2022-08-04T01:35:00.068Z,58.32
2022-08-04T01:38:31.535Z,58.42
2022-08-04T01:41:59.077Z,58.54
2022-08-04T01:45:23.399Z,59.16
2022-08-04T01:48:51.018Z,59.37
2022-08-04T01:52:02.459Z,59.05
2022-08-04T01:55:54.264Z,59.37
2022-08-04T01:59:23.906Z,59.54
2022-08-04T02:02:59.393Z,59.44
2022-08-04T02:06:09.317Z,59.68
2022-08-04T02:09:15.277Z,59.40
2022-08-04T02:12:27.302Z,59.53
2022-08-04T02:15:49.759Z,59.35
2022-08-04T02:19:22.297Z,59.17
2022-08-04T02:22:08.168Z,59.13
2022-08-04T02:24:46.323Z,59.51
2022-08-04T02:27:16.678Z,59.73
2022-08-04T02:29:53.728Z,59.48
2022-08-04T02:32:28.471Z,59.75
2022-08-04T02:35:13.700Z,59.68
2022-08-04T02:38:01.258Z,59.78
2022-08-04T02:42:59.222Z,60.18
2022-08-04T02:45:29.039Z,60.11
2022-08-04T02:48:29.085Z,60.15
2022-08-04T02:50:52.075Z,60.18
2022-08-04T02:53:23.147Z,60.32
2022-08-04T02:55:53.374Z,60.29
2022-08-04T02:58:31.669Z,60.39
2022-08-04T03:00:59.936Z,60.48
2022-08-04T03:03:41.146Z,60.44
2022-08-04T03:06:46.241Z,60.85
2022-08-04T03:09:40.560Z,61.18
2022-08-04T03:12:40.773Z,61.35
2022-08-04T03:15:41.067Z,61.48
2022-08-04T03:18:38.115Z,61.69
2022-08-04T03:21:35.654Z,61.89
2022-08-04T03:24:23.424Z,61.79
2022-08-04T03:27:10.190Z,61.92
2022-08-04T03:30:00.999Z,61.62
2022-08-04T03:33:03.932Z,61.68
2022-08-04T03:36:08.786Z,61.39
2022-08-04T03:39:12.479Z,61.61
2022-08-04T03:42:16.008Z,61.69
2022-08-04T03:45:23.195Z,61.77
2022-08-04T03:48:13.691Z,62.59
2022-08-04T03:51:36.096Z,63.42
2022-08-04T03:54:24.378Z,63.03
2022-08-04T03:57:48.640Z,62.56
2022-08-04T04:01:16.841Z,64.01
2022-08-04T04:04:44.135Z,64.41
2022-08-04T04:07:35.722Z,63.52
2022-08-04T04:11:03.317Z,63.26
2022-08-04T04:14:16.329Z,62.66
2022-08-04T04:17:35.659Z,62.55
2022-08-04T04:21:17.636Z,62.52
2022-08-04T04:24:48.196Z,62.51
2022-08-04T04:27:30.856Z,62.42
2022-08-04T04:30:07.393Z,62.37
2022-08-04T04:32:45.822Z,62.25
2022-08-04T04:35:27.591Z,61.99
2022-08-04T04:38:21.653Z,62.29
2022-08-04T04:41:22.474Z,62.62
2022-08-04T04:44:16.574Z,62.06
2022-08-04T04:47:16.384Z,62.81
2022-08-04T04:50:16.914Z,62.69
2022-08-04T04:52:51.229Z,62.86
2022-08-04T04:55:47.957Z,63.04
2022-08-04T04:58:22.172Z,62.78
2022-08-04T05:01:18.219Z,62.42
2022-08-04T05:04:08.074Z,62.25
2022-08-04T05:07:09.925Z,61.65
2022-08-04T05:09:59.656Z,61.33
2022-08-04T05:14:37.122Z,61.03
2022-08-04T05:15:49.703Z,61.18
2022-08-04T05:18:23.208Z,61.09
2022-08-04T05:32:27.515Z,59.60
2022-08-04T05:35:04.040Z,59.22
2022-08-04T05:37:36.030Z,58.86
2022-08-04T05:40:07.278Z,58.23
2022-08-04T05:42:38.727Z,57.76
2022-08-04T05:45:10.545Z,58.02
2022-08-04T05:47:44.529Z,58.04
2022-08-04T05:50:13.705Z,57.88
2022-08-04T05:52:43.090Z,57.70
2022-08-04T05:55:12.690Z,57.59
2022-08-04T05:58:05.580Z,57.63
2022-08-04T06:00:41.492Z,57.53
2022-08-04T06:03:12.558Z,57.58
2022-08-04T06:05:43.920Z,56.98
2022-08-04T06:08:13.735Z,56.93
2022-08-04T06:10:44.859Z,56.73
2022-08-04T06:13:47.678Z,56.20
2022-08-04T06:16:17.968Z,55.77
2022-08-04T06:20:00.068Z,55.33
2022-08-04T06:21:58.731Z,54.52
2022-08-04T06:24:30.433Z,54.39
2022-08-04T06:26:59.427Z,54.52
2022-08-04T06:29:51.292Z,54.10
2022-08-04T06:32:33.630Z,54.00
2022-08-04T06:35:10.275Z,53.28
2022-08-04T06:37:43.489Z,53.16
2022-08-04T06:40:40.591Z,53.12
2022-08-04T06:43:16.291Z,52.84
2022-08-04T06:45:51.587Z,52.70
2022-08-04T06:48:55.154Z,52.68
2022-08-04T06:51:42.440Z,52.89
2022-08-04T06:54:23.014Z,52.37
2022-08-04T06:56:58.388Z,51.94
2022-08-04T06:59:28.401Z,52.24
2022-08-04T07:01:59.089Z,51.96
2022-08-04T07:04:28.046Z,51.85
2022-08-04T07:07:00.800Z,51.89
2022-08-04T07:09:31.101Z,51.68
2022-08-04T07:12:01.681Z,51.69
2022-08-04T07:14:40.298Z,51.40
2022-08-04T07:17:14.159Z,51.44
2022-08-04T07:19:53.990Z,51.07
2022-08-04T07:22:43.593Z,50.98
2022-08-04T07:25:58.661Z,51.04
2022-08-04T07:34:17.248Z,50.14
2022-08-04T07:38:16.165Z,49.67
2022-08-04T07:40:44.350Z,49.62
2022-08-04T07:43:32.200Z,49.69
2022-08-04T08:03:43.030Z,46.38
2022-08-04T08:07:00.670Z,46.59
2022-08-04T08:09:41.756Z,46.58
2022-08-04T08:12:35.823Z,45.33
2022-08-04T08:15:13.329Z,45.12
2022-08-04T08:18:18.319Z,45.22
2022-08-04T08:22:04.323Z,43.83
2022-08-04T08:34:05.687Z,43.13
2022-08-04T08:37:02.728Z,42.79
2022-08-04T08:39:41.679Z,42.12
2022-08-04T08:42:47.225Z,42.08
2022-08-04T08:45:57.953Z,41.88
2022-08-04T08:49:10.728Z,40.37
2022-08-04T08:53:00.731Z,39.83
2022-08-04T08:56:03.399Z,40.05
2022-08-04T08:59:45.646Z,38.43
2022-08-04T09:03:15.629Z,38.93
2022-08-04T09:06:01.689Z,38.68
2022-08-04T09:08:57.905Z,39.33
2022-08-04T09:11:37.638Z,38.29
2022-08-04T09:14:14.130Z,38.42
2022-08-04T09:16:52.535Z,38.56
2022-08-04T09:19:38.955Z,37.18
2022-08-04T09:22:29.530Z,36.38
2022-08-04T09:25:07.374Z,36.30
2022-08-04T09:27:49.671Z,36.92
2022-08-04T09:30:23.670Z,36.55
2022-08-04T09:33:07.485Z,35.28
2022-08-04T09:35:52.561Z,34.20
2022-08-04T09:38:33.002Z,34.69
2022-08-04T09:41:48.537Z,33.87
2022-08-04T09:48:04.337Z,32.96
2022-08-04T09:50:50.625Z,32.42
2022-08-04T09:54:30.762Z,32.39
2022-08-04T09:57:54.103Z,32.37
2022-08-04T10:00:49.635Z,31.69
2022-08-04T10:04:24.230Z,30.86
2022-08-04T10:08:27.244Z,30.33
2022-08-04T10:12:38.963Z,30.28
2022-08-04T10:15:15.034Z,29.55
2022-08-04T10:17:52.138Z,29.77
2022-08-04T10:21:06.802Z,29.17
2022-08-04T10:24:09.571Z,28.06
2022-08-04T10:26:51.299Z,28.08
2022-08-04T10:29:30.694Z,27.32
2022-08-04T10:32:09.519Z,26.51
2022-08-04T10:34:44.470Z,26.69
2022-08-04T10:38:00.258Z,27.34
2022-08-04T10:40:40.900Z,27.12
2022-08-04T10:43:40.768Z,26.43
2022-08-04T10:46:42.515Z,26.46
2022-08-04T10:49:21.805Z,25.88
2022-08-04T10:51:59.953Z,25.15
2022-08-04T10:54:48.348Z,24.52
2022-08-04T10:57:43.410Z,24.40
2022-08-04T11:00:27.472Z,24.66
2022-08-04T11:03:31.948Z,24.18
2022-08-04T11:06:07.150Z,23.73
2022-08-04T11:08:41.848Z,22.90
2022-08-04T11:11:21.132Z,22.59
2022-08-04T11:14:02.741Z,22.12
2022-08-04T11:16:42.204Z,22.49
2022-08-04T11:19:45.399Z,22.85
2022-08-04T11:22:27.257Z,22.82
2022-08-04T11:25:14.429Z,22.16
2022-08-04T11:28:02.839Z,21.94
2022-08-04T11:30:37.962Z,21.56
2022-08-04T11:33:22.154Z,21.43
2022-08-04T11:36:13.269Z,20.97
2022-08-04T11:38:52.046Z,20.89
2022-08-04T11:41:32.768Z,21.08
2022-08-04T11:45:05.566Z,21.00
2022-08-04T11:47:57.866Z,20.49
2022-08-04T11:50:50.372Z,20.56
2022-08-04T11:53:36.520Z,20.10
2022-08-04T11:56:11.134Z,19.83
2022-08-04T11:58:41.475Z,19.44
2022-08-04T12:01:41.295Z,19.16
2022-08-04T12:04:27.312Z,18.86
2022-08-04T12:07:31.718Z,18.75
2022-08-04T12:10:41.826Z,18.80
2022-08-04T12:13:52.386Z,18.46
2022-08-04T12:17:16.320Z,18.66
2022-08-04T12:20:41.639Z,18.76
2022-08-04T12:23:57.876Z,19.17
2022-08-04T12:27:06.621Z,20.22
2022-08-04T12:30:57.246Z,21.12
2022-08-04T12:34:03.261Z,21.38
2022-08-04T12:36:28.238Z,21.24
2022-08-04T12:39:07.181Z,21.08
2022-08-04T12:41:46.130Z,20.95
2022-08-04T12:44:53.305Z,20.31
2022-08-04T12:47:29.058Z,19.62
2022-08-04T12:50:37.931Z,18.80
2022-08-04T12:53:32.120Z,18.57
2022-08-04T12:56:45.333Z,17.91
2022-08-04T13:00:04.941Z,17.18
2022-08-04T13:03:27.308Z,17.79
2022-08-04T13:06:45.314Z,17.88
2022-08-04T13:09:53.741Z,17.91
2022-08-04T13:13:45.566Z,17.75
2022-08-04T13:17:04.527Z,17.95
2022-08-04T13:20:10.154Z,17.89
2022-08-04T13:23:12.379Z,17.06
2022-08-04T13:26:43.211Z,16.53
2022-08-04T13:33:31.533Z,16.38
2022-08-04T13:36:25.500Z,15.78
2022-08-04T13:39:39.650Z,15.33
2022-08-04T13:42:46.157Z,14.74
2022-08-04T13:45:35.216Z,14.49
2022-08-04T13:48:15.688Z,15.13
2022-08-04T13:51:12.360Z,15.31
2022-08-04T13:54:07.566Z,15.10
2022-08-04T13:56:49.879Z,15.14
2022-08-04T13:59:36.853Z,15.08
2022-08-04T14:03:23.244Z,15.79
2022-08-04T14:05:35.397Z,16.12
2022-08-04T14:08:35.827Z,16.38
2022-08-04T14:12:06.631Z,16.29
2022-08-04T14:14:23.450Z,15.53
2022-08-04T14:17:03.643Z,15.60
2022-08-04T14:19:58.763Z,16.29
2022-08-04T14:22:34.349Z,15.64
2022-08-04T14:25:19.039Z,15.56
2022-08-04T14:28:03.857Z,15.93
2022-08-04T14:30:42.740Z,15.90
2022-08-04T14:34:01.838Z,15.84
2022-08-04T14:36:05.445Z,15.85
2022-08-04T14:38:54.456Z,16.14
2022-08-04T14:41:43.255Z,15.71
2022-08-04T14:44:21.453Z,15.36
2022-08-04T14:46:57.767Z,15.60
2022-08-04T14:49:26.906Z,15.55
2022-08-04T14:51:59.178Z,15.17
2022-08-04T14:54:35.808Z,14.61
2022-08-04T14:57:08.292Z,14.37
2022-08-04T15:00:00.858Z,14.52
2022-08-04T15:02:33.355Z,14.42
2022-08-04T15:05:55.223Z,14.17
2022-08-04T15:07:54.698Z,14.30
2022-08-04T15:10:26.659Z,14.57
2022-08-04T15:12:56.677Z,14.45
2022-08-04T15:16:08.491Z,13.65
2022-08-04T15:18:38.790Z,13.40
2022-08-04T15:21:08.287Z,13.59
2022-08-04T15:23:52.588Z,13.40
2022-08-04T15:26:37.146Z,13.04
2022-08-04T15:29:27.340Z,12.66
2022-08-04T15:32:04.321Z,12.80
2022-08-04T15:34:49.465Z,13.24
2022-08-04T15:37:29.391Z,13.44
2022-08-04T15:40:09.053Z,13.84
2022-08-04T15:42:56.917Z,14.25
2022-08-04T15:46:32.885Z,14.05
2022-08-04T15:48:26.810Z,14.10
2022-08-04T15:51:05.546Z,14.81
2022-08-04T15:54:16.981Z,15.48
2022-08-04T15:57:02.360Z,15.61
2022-08-04T16:00:12.836Z,15.64
2022-08-04T16:02:43.955Z,15.76
2022-08-04T16:05:35.596Z,15.60
2022-08-04T16:08:14.857Z,15.47
2022-08-04T16:10:45.428Z,15.36
2022-08-04T16:13:17.091Z,15.23
2022-08-04T16:15:50.888Z,14.94
2022-08-04T16:18:38.931Z,14.28
2022-08-04T16:21:18.379Z,13.95
2022-08-04T16:24:09.940Z,13.99
2022-08-04T16:26:56.466Z,13.70
2022-08-04T16:29:32.000Z,13.72
2022-08-04T16:32:12.025Z,13.42
2022-08-04T16:35:04.288Z,13.32
2022-08-04T16:37:38.038Z,13.22
2022-08-04T16:40:39.593Z,13.29
2022-08-04T16:43:17.658Z,12.95
2022-08-04T16:45:50.343Z,13.05
2022-08-04T16:48:26.999Z,13.29
2022-08-04T16:51:04.546Z,13.49
2022-08-04T16:54:03.028Z,13.64
2022-08-04T16:56:33.000Z,13.93
2022-08-04T16:59:11.439Z,14.24
2022-08-04T17:01:51.169Z,14.14
2022-08-04T17:04:30.498Z,14.13
2022-08-04T17:07:16.455Z,14.49
2022-08-04T17:09:52.115Z,15.04
2022-08-04T17:12:20.141Z,15.20
2022-08-04T17:14:48.809Z,15.36
2022-08-04T17:17:23.076Z,15.56
2022-08-04T17:19:53.713Z,16.12
2022-08-04T17:22:22.049Z,16.18
2022-08-04T17:24:51.481Z,16.38
2022-08-04T17:28:20.220Z,16.84
2022-08-04T17:30:26.551Z,17.53
2022-08-04T17:32:54.404Z,17.94
2022-08-04T17:35:23.068Z,18.23
2022-08-04T17:37:53.682Z,18.40
2022-08-04T17:40:25.691Z,19.07
2022-08-04T17:44:03.874Z,19.84
2022-08-04T17:46:28.420Z,20.46
2022-08-04T17:49:00.971Z,21.53
2022-08-04T17:51:53.426Z,22.11
2022-08-04T17:54:37.312Z,22.82
2022-08-04T17:57:19.446Z,23.58
2022-08-04T17:59:58.459Z,23.91
2022-08-04T18:02:32.685Z,24.33
2022-08-04T18:05:07.972Z,24.97
2022-08-04T18:08:46.138Z,25.04
2022-08-04T18:10:52.353Z,25.45
2022-08-04T18:13:26.462Z,26.01
2022-08-04T18:16:04.414Z,25.90
2022-08-04T18:18:35.414Z,26.37
2022-08-04T18:21:06.675Z,27.35
2022-08-04T18:23:34.662Z,26.93
2022-08-04T18:26:23.706Z,26.94
2022-08-04T18:28:52.265Z,27.64
2022-08-04T18:31:20.308Z,28.53
2022-08-04T18:33:59.063Z,27.87
2022-08-04T18:36:34.461Z,28.23
2022-08-04T18:39:12.576Z,30.03
2022-08-04T18:42:02.269Z,30.79
2022-08-04T18:44:32.607Z,31.18
2022-08-04T18:47:23.345Z,30.64
2022-08-04T18:51:01.774Z,30.69
2022-08-04T18:55:55.874Z,31.17
2022-08-04T18:58:27.574Z,31.30
2022-08-04T19:01:00.517Z,31.32
2022-08-04T19:08:01.702Z,31.42
2022-08-04T19:11:54.101Z,31.66
2022-08-04T19:15:19.010Z,32.95
2022-08-04T19:18:53.367Z,32.82
2022-08-04T19:22:35.694Z,35.92
2022-08-04T19:26:03.949Z,35.15
2022-08-04T19:29:15.440Z,34.25
2022-08-04T19:32:24.251Z,33.93
2022-08-04T19:35:50.491Z,33.94
2022-08-04T19:38:39.620Z,34.31
2022-08-04T19:41:29.554Z,34.37
2022-08-04T19:44:48.006Z,34.73
2022-08-04T19:48:21.523Z,35.21
2022-08-04T19:51:27.906Z,36.33
2022-08-04T19:54:23.843Z,36.10
2022-08-04T19:57:38.045Z,35.80
2022-08-04T20:00:32.891Z,36.14
2022-08-04T20:03:04.211Z,36.61
2022-08-04T20:06:06.819Z,36.83
2022-08-04T20:09:27.116Z,36.41
2022-08-04T20:12:42.126Z,36.86
2022-08-04T20:16:29.725Z,37.26
2022-08-04T20:19:17.531Z,37.48
2022-08-04T20:22:50.506Z,37.33
2022-08-04T20:25:45.649Z,37.69
2022-08-04T20:29:01.816Z,37.79
2022-08-04T20:31:55.686Z,38.52
2022-08-04T20:35:17.119Z,39.23
2022-08-04T20:38:33.167Z,40.46
2022-08-04T20:42:02.378Z,40.75
2022-08-04T20:44:54.171Z,41.33
2022-08-04T20:47:57.355Z,41.34
2022-08-04T20:50:50.515Z,41.14
2022-08-04T20:54:03.451Z,41.43
2022-08-04T20:57:48.772Z,41.69
2022-08-04T21:00:58.515Z,41.36
2022-08-04T21:04:07.376Z,41.64
2022-08-04T21:07:36.530Z,41.78
2022-08-04T21:11:15.359Z,42.16
2022-08-04T21:14:34.554Z,42.35
2022-08-04T21:18:07.164Z,42.67
2022-08-04T21:21:25.236Z,43.16
2022-08-04T21:24:48.628Z,43.86
2022-08-04T21:28:04.295Z,43.87
2022-08-04T21:31:36.853Z,44.39
2022-08-04T21:34:40.120Z,44.80
2022-08-04T21:38:02.650Z,44.37
2022-08-04T21:41:11.789Z,44.74
2022-08-04T21:44:11.811Z,44.79
2022-08-04T21:50:50.364Z,45.04
2022-08-04T21:54:19.465Z,45.30
2022-08-04T21:57:49.528Z,45.72
2022-08-04T22:00:58.182Z,45.96
2022-08-04T22:04:06.028Z,45.98
2022-08-04T22:07:18.393Z,46.49
2022-08-04T22:10:44.429Z,46.55
2022-08-04T22:14:10.771Z,47.15
2022-08-04T22:17:18.461Z,47.53
2022-08-04T22:20:28.419Z,47.18
2022-08-04T22:23:19.288Z,47.37
2022-08-04T22:26:53.815Z,47.47
2022-08-04T22:29:59.462Z,48.05
2022-08-04T22:33:16.660Z,48.31
2022-08-04T22:36:34.115Z,48.54
2022-08-04T22:40:02.578Z,48.91
2022-08-04T22:43:31.251Z,49.23
2022-08-04T22:46:56.474Z,49.43
2022-08-04T22:50:44.833Z,49.59
2022-08-04T22:54:12.346Z,49.88
2022-08-04T22:57:42.861Z,49.86
2022-08-04T23:01:18.548Z,50.22
2022-08-04T23:04:49.950Z,50.30
2022-08-04T23:08:43.227Z,50.14
2022-08-04T23:12:24.414Z,50.55
2022-08-04T23:15:44.699Z,50.38
2022-08-04T23:19:09.552Z,50.75
2022-08-04T23:22:41.965Z,51.05
2022-08-04T23:26:10.951Z,50.85
2022-08-04T23:29:52.530Z,50.73
2022-08-04T23:33:51.538Z,50.76
2022-08-04T23:37:01.978Z,50.78
2022-08-04T23:40:29.986Z,51.00
2022-08-04T23:43:55.126Z,51.19
2022-08-04T23:48:15.494Z,51.43
2022-08-04T23:51:33.365Z,51.36
2022-08-04T23:55:19.103Z,51.39
2022-08-04T23:58:49.172Z,51.81
